createdAt,value
2019-03-16T00:00:13.657Z,37.93
2019-03-16T00:02:42.127Z,43.97
2019-03-16T00:05:10.564Z,35.20
2019-03-16T00:07:38.995Z,24.87
2019-03-16T00:10:08.104Z,31.97
2019-03-16T00:12:36.641Z,34.13
2019-03-16T00:15:07.367Z,10.67
2019-03-16T00:17:35.857Z,42.00
2019-03-16T00:20:07.739Z,29.23
2019-03-16T00:22:36.200Z,37.10
2019-03-16T00:25:06.735Z,35.13
2019-03-16T00:27:35.158Z,38.27
2019-03-16T00:30:05.608Z,22.73
2019-03-16T00:32:34.307Z,10.90
2019-03-16T00:35:02.889Z,22.13
2019-03-16T00:37:31.373Z,20.07
2019-03-16T00:39:59.808Z,40.10
2019-03-16T00:42:28.245Z,30.53
2019-03-16T00:44:56.873Z,27.17
2019-03-16T00:47:25.317Z,28.57
2019-03-16T00:49:53.773Z,29.13
2019-03-16T00:52:22.197Z,31.50
2019-03-16T00:54:51.496Z,24.90
2019-03-16T00:57:19.914Z,28.93
2019-03-16T00:59:48.361Z,19.70
2019-03-16T01:02:26.417Z,33.03
2019-03-16T01:04:46.960Z,20.77
2019-03-16T01:07:15.461Z,24.00
2019-03-16T01:09:43.916Z,42.33
2019-03-16T01:12:12.409Z,24.90
2019-03-16T01:14:40.845Z,26.03
2019-03-16T01:17:09.269Z,40.87
2019-03-16T01:19:37.708Z,28.83
2019-03-16T01:22:06.150Z,33.37
2019-03-16T01:24:34.604Z,22.83
2019-03-16T01:27:03.041Z,33.30
2019-03-16T01:29:31.516Z,33.53
2019-03-16T01:31:59.938Z,35.90
2019-03-16T01:34:28.410Z,44.60
2019-03-16T01:36:56.986Z,37.57
2019-03-16T01:39:25.431Z,29.50
2019-03-16T01:41:53.857Z,54.33
2019-03-16T01:44:22.302Z,23.63
2019-03-16T01:46:50.729Z,29.57
2019-03-16T01:49:24.909Z,52.30
2019-03-16T01:51:53.552Z,24.40
2019-03-16T01:54:21.994Z,30.87
2019-03-16T01:56:50.428Z,28.40
2019-03-16T01:59:18.872Z,24.57
2019-03-16T02:01:49.366Z,22.13
2019-03-16T02:04:17.834Z,22.37
2019-03-16T02:06:46.332Z,39.50
2019-03-16T02:09:14.757Z,23.87
2019-03-16T02:11:43.195Z,33.87
2019-03-16T02:14:11.620Z,27.87
2019-03-16T02:16:40.328Z,19.80
2019-03-16T02:19:08.753Z,33.13
2019-03-16T02:21:37.211Z,31.57
2019-03-16T02:24:05.981Z,31.37
2019-03-16T02:26:34.467Z,36.80
2019-03-16T02:29:02.954Z,40.73
2019-03-16T02:31:31.410Z,30.87
2019-03-16T02:33:59.852Z,27.57
2019-03-16T02:36:28.281Z,43.80
2019-03-16T02:38:56.696Z,30.20
2019-03-16T02:41:25.395Z,36.17
2019-03-16T02:43:53.886Z,25.93
2019-03-16T02:46:22.407Z,30.53
2019-03-16T02:48:51.094Z,30.67
2019-03-16T02:51:19.556Z,24.17
2019-03-16T02:53:48.042Z,32.13
2019-03-16T02:56:16.489Z,39.57
2019-03-16T02:58:44.961Z,39.23
2019-03-16T03:01:13.395Z,36.37
2019-03-16T03:03:41.817Z,25.77
2019-03-16T03:06:10.294Z,31.93
2019-03-16T03:08:38.731Z,26.63
2019-03-16T03:11:07.158Z,25.13
2019-03-16T03:13:35.597Z,37.80
2019-03-16T03:16:04.695Z,24.63
2019-03-16T03:18:33.216Z,18.47
2019-03-16T03:21:01.665Z,29.83
2019-03-16T03:23:30.167Z,25.93
2019-03-16T03:25:58.677Z,27.67
2019-03-16T03:28:27.112Z,34.20
2019-03-16T03:30:55.551Z,32.33
2019-03-16T03:33:24.066Z,29.97
2019-03-16T03:35:52.697Z,28.80
2019-03-16T03:38:21.180Z,30.70
2019-03-16T03:40:49.607Z,37.10
2019-03-16T03:43:18.033Z,36.70
2019-03-16T03:45:46.472Z,29.23
2019-03-16T03:48:15.189Z,39.17
2019-03-16T03:50:43.633Z,30.57
2019-03-16T03:53:12.121Z,22.67
2019-03-16T03:55:40.970Z,45.00
2019-03-16T03:58:09.394Z,25.53
2019-03-16T04:00:37.822Z,32.50
2019-03-16T04:03:06.700Z,44.60
2019-03-16T04:05:35.248Z,36.07
2019-03-16T04:08:03.803Z,40.57
2019-03-16T04:10:37.962Z,40.23
2019-03-16T04:13:06.410Z,35.60
2019-03-16T04:15:34.847Z,48.03
2019-03-16T04:18:03.276Z,31.40
2019-03-16T04:20:31.704Z,28.67
2019-03-16T04:23:00.158Z,36.50
2019-03-16T04:25:30.315Z,28.90
2019-03-16T04:27:58.809Z,28.43
2019-03-16T04:30:27.250Z,27.10
2019-03-16T04:32:55.689Z,35.63
2019-03-16T04:35:24.114Z,50.83
2019-03-16T04:37:52.544Z,23.20
2019-03-16T04:40:23.905Z,30.87
2019-03-16T04:42:52.346Z,41.63
2019-03-16T04:45:20.762Z,34.20
2019-03-16T04:47:49.219Z,33.93
2019-03-16T04:50:17.637Z,39.07
2019-03-16T04:52:46.093Z,24.90
2019-03-16T04:55:14.530Z,35.03
2019-03-16T04:57:43.118Z,39.37
2019-03-16T05:00:13.799Z,35.93
2019-03-16T05:02:42.296Z,45.83
2019-03-16T05:05:10.963Z,36.97
2019-03-16T05:07:39.497Z,33.40
2019-03-16T05:10:10.350Z,34.27
2019-03-16T05:12:38.788Z,35.00
2019-03-16T05:15:08.694Z,33.77
2019-03-16T05:17:37.145Z,24.37
2019-03-16T05:20:08.784Z,40.03
2019-03-16T05:22:37.215Z,32.37
2019-03-16T05:25:10.453Z,29.80
2019-03-16T05:27:38.891Z,16.93
2019-03-16T05:30:14.708Z,30.63
2019-03-16T05:32:43.173Z,35.60
2019-03-16T05:35:12.024Z,47.40
2019-03-16T05:37:40.458Z,28.03
2019-03-16T05:40:10.240Z,27.43
2019-03-16T05:42:38.690Z,46.97
2019-03-16T05:45:09.298Z,37.57
2019-03-16T05:47:37.771Z,24.07
2019-03-16T05:50:11.711Z,35.47
2019-03-16T05:52:40.138Z,23.83
2019-03-16T05:55:09.236Z,32.77
2019-03-16T05:57:37.677Z,31.80
2019-03-16T06:00:09.920Z,42.43
2019-03-16T06:02:38.628Z,24.53
2019-03-16T06:05:11.014Z,23.87
2019-03-16T06:07:39.522Z,27.80
2019-03-16T06:10:12.027Z,38.37
2019-03-16T06:12:40.452Z,21.90
2019-03-16T06:15:10.622Z,24.77
2019-03-16T06:17:39.069Z,34.10
2019-03-16T06:20:13.302Z,27.40
2019-03-16T06:22:41.821Z,24.00
2019-03-16T06:25:10.290Z,36.87
2019-03-16T06:27:38.724Z,39.87
2019-03-16T06:30:12.596Z,29.47
2019-03-16T06:32:41.025Z,27.07
2019-03-16T06:35:23.438Z,28.57
2019-03-16T06:37:39.617Z,28.37
2019-03-16T06:40:10.927Z,46.20
2019-03-16T06:42:40.408Z,20.77
2019-03-16T06:45:10.835Z,21.53
2019-03-16T06:47:39.750Z,22.97
2019-03-16T06:50:13.413Z,17.30
2019-03-16T06:52:41.840Z,25.20
2019-03-16T06:55:10.831Z,24.33
2019-03-16T06:57:39.252Z,18.23
2019-03-16T07:00:18.328Z,26.47
2019-03-16T07:02:46.760Z,24.17
2019-03-16T07:05:15.465Z,33.87
2019-03-16T07:07:43.902Z,21.60
2019-03-16T07:10:15.266Z,32.53
2019-03-16T07:12:43.749Z,21.77
2019-03-16T07:15:13.449Z,22.33
2019-03-16T07:17:41.889Z,36.43
2019-03-16T07:20:12.829Z,28.03
2019-03-16T07:22:41.271Z,41.70
2019-03-16T07:25:10.064Z,23.90
2019-03-16T07:27:38.744Z,37.33
2019-03-16T07:30:10.310Z,23.00
2019-03-16T07:32:38.764Z,29.40
2019-03-16T07:35:07.910Z,16.03
2019-03-16T07:37:36.354Z,32.30
2019-03-16T07:40:07.991Z,32.83
2019-03-16T07:42:36.431Z,14.00
2019-03-16T07:45:08.880Z,34.90
2019-03-16T07:47:37.714Z,23.27
2019-03-16T07:50:08.750Z,32.63
2019-03-16T07:52:37.186Z,20.93
2019-03-16T07:55:06.864Z,38.13
2019-03-16T07:57:40.071Z,18.87
2019-03-16T08:00:08.830Z,24.13
2019-03-16T08:02:37.381Z,17.93
2019-03-16T08:05:17.336Z,26.80
2019-03-16T08:07:36.441Z,29.73
2019-03-16T08:10:08.218Z,24.93
2019-03-16T08:12:36.660Z,30.97
2019-03-16T08:15:07.425Z,30.83
2019-03-16T08:17:35.862Z,23.53
2019-03-16T08:20:06.953Z,24.93
2019-03-16T08:22:35.400Z,30.97
2019-03-16T08:25:03.992Z,22.13
2019-03-16T08:27:32.441Z,19.90
2019-03-16T08:30:00.864Z,26.00
2019-03-16T08:32:30.052Z,18.40
2019-03-16T08:35:00.452Z,27.17
2019-03-16T08:37:29.798Z,28.97
2019-03-16T08:39:58.644Z,30.20
2019-03-16T08:42:27.315Z,29.43
2019-03-16T08:44:56.480Z,25.77
2019-03-16T08:47:25.178Z,24.93
2019-03-16T08:49:53.657Z,27.53
2019-03-16T08:52:22.127Z,29.90
2019-03-16T08:54:50.558Z,27.57
2019-03-16T08:57:18.981Z,21.07
2019-03-16T08:59:47.436Z,14.50
2019-03-16T09:02:15.864Z,32.73
2019-03-16T09:04:44.293Z,15.40
2019-03-16T09:07:12.741Z,25.10
2019-03-16T09:09:41.184Z,27.83
2019-03-16T09:12:09.614Z,17.33
2019-03-16T09:14:38.045Z,15.70
2019-03-16T09:17:08.898Z,22.73
2019-03-16T09:19:36.651Z,19.97
2019-03-16T09:22:05.131Z,12.63
2019-03-16T09:24:33.557Z,15.67
2019-03-16T09:27:01.976Z,20.93
2019-03-16T09:29:30.435Z,16.00
2019-03-16T09:31:58.856Z,14.97
2019-03-16T09:34:27.300Z,20.17
2019-03-16T09:36:55.716Z,11.07
2019-03-16T09:39:24.207Z,23.33
2019-03-16T09:41:52.722Z,11.10
2019-03-16T09:44:21.192Z,8.10
2019-03-16T09:46:49.649Z,16.47
2019-03-16T09:49:20.269Z,16.33
2019-03-16T09:51:48.699Z,23.60
2019-03-16T09:54:17.203Z,18.87
2019-03-16T09:56:45.624Z,15.37
2019-03-16T09:59:14.049Z,11.17
2019-03-16T10:01:42.490Z,22.53
2019-03-16T10:04:10.917Z,14.30
2019-03-16T10:06:39.354Z,12.00
2019-03-16T10:09:08.240Z,16.33
2019-03-16T10:11:36.676Z,18.07
2019-03-16T10:14:05.366Z,9.03
2019-03-16T10:16:33.800Z,7.83
2019-03-16T10:19:02.222Z,16.23
2019-03-16T10:21:30.654Z,8.67
2019-03-16T10:23:59.088Z,13.53
2019-03-16T10:26:27.528Z,14.87
2019-03-16T10:28:56.084Z,6.70
2019-03-16T10:31:24.560Z,6.47
2019-03-16T10:33:52.984Z,16.73
2019-03-16T10:36:21.413Z,7.80
2019-03-16T10:38:49.832Z,13.40
2019-03-16T10:41:18.264Z,7.50
2019-03-16T10:43:46.686Z,3.00
2019-03-16T10:46:15.130Z,9.00
2019-03-16T10:48:43.552Z,7.93
2019-03-16T10:51:12.085Z,8.17
2019-03-16T10:53:40.503Z,6.93
2019-03-16T10:56:09.037Z,6.00
2019-03-16T10:58:37.470Z,7.37
2019-03-16T11:01:05.924Z,9.83
2019-03-16T11:03:34.353Z,8.37
2019-03-16T11:06:02.810Z,14.27
2019-03-16T11:08:31.242Z,7.27
2019-03-16T11:10:59.729Z,6.70
2019-03-16T11:13:28.188Z,9.00
2019-03-16T11:15:56.625Z,5.00
2019-03-16T11:18:25.100Z,8.30
2019-03-16T11:20:53.524Z,6.50
2019-03-16T11:23:21.977Z,6.33
2019-03-16T11:25:50.536Z,6.43
2019-03-16T11:28:18.960Z,7.37
2019-03-16T11:30:47.393Z,4.43
2019-03-16T11:33:15.940Z,4.00
2019-03-16T11:35:44.457Z,5.00
2019-03-16T11:38:12.882Z,4.50
2019-03-16T11:40:41.318Z,9.70
2019-03-16T11:43:09.757Z,7.60
2019-03-16T11:45:38.189Z,5.87
2019-03-16T11:48:06.636Z,4.43
2019-03-16T11:50:35.065Z,5.90
2019-03-16T11:53:03.510Z,18.00
2019-03-16T11:55:32.010Z,5.80
2019-03-16T11:58:00.445Z,3.93
2019-03-16T12:00:28.868Z,5.63
2019-03-16T12:02:57.337Z,7.07
2019-03-16T12:05:25.758Z,5.63
2019-03-16T12:07:54.201Z,4.53
2019-03-16T12:10:22.633Z,3.43
2019-03-16T12:12:51.077Z,5.13
2019-03-16T12:15:19.578Z,4.60
2019-03-16T12:17:48.016Z,1.90
2019-03-16T12:20:18.629Z,2.90
2019-03-16T12:22:47.283Z,6.10
2019-03-16T12:25:15.716Z,5.47
2019-03-16T12:27:44.140Z,2.13
2019-03-16T12:30:14.518Z,1.70
2019-03-16T12:32:42.944Z,0.80
2019-03-16T12:35:11.527Z,2.50
2019-03-16T12:37:40.113Z,14.73
2019-03-16T12:40:14.007Z,5.40
2019-03-16T12:42:42.486Z,2.83
2019-03-16T12:45:16.611Z,1.57
2019-03-16T12:47:45.032Z,1.20
2019-03-16T12:50:13.633Z,1.80
2019-03-16T12:52:42.217Z,2.37
2019-03-16T12:55:11.593Z,1.13
2019-03-16T12:57:40.012Z,0.87
2019-03-16T13:00:13.902Z,1.77
2019-03-16T13:02:42.334Z,1.60
2019-03-16T13:05:10.941Z,1.13
2019-03-16T13:07:39.366Z,1.73
2019-03-16T13:10:12.636Z,1.43
2019-03-16T13:12:41.129Z,2.80
2019-03-16T13:15:09.997Z,10.60
2019-03-16T13:17:38.529Z,1.50
2019-03-16T13:20:10.144Z,0.80
2019-03-16T13:22:40.931Z,0.70
2019-03-16T13:25:10.572Z,1.20
2019-03-16T13:27:39.006Z,1.80
2019-03-16T13:30:13.160Z,1.33
2019-03-16T13:32:41.614Z,1.80
2019-03-16T13:35:10.297Z,1.43
2019-03-16T13:37:39.273Z,2.37
2019-03-16T13:40:14.778Z,0.73
2019-03-16T13:42:43.208Z,1.77
2019-03-16T13:45:12.138Z,0.50
2019-03-16T13:47:40.633Z,2.07
2019-03-16T13:50:17.458Z,2.40
2019-03-16T13:52:46.381Z,3.50
2019-03-16T13:55:14.911Z,1.60
2019-03-16T13:57:43.354Z,1.27
2019-03-16T14:00:17.337Z,5.20
2019-03-16T14:02:45.903Z,1.70
2019-03-16T14:05:14.350Z,3.67
2019-03-16T14:07:43.448Z,7.90
2019-03-16T14:10:25.697Z,1.43
2019-03-16T14:12:55.509Z,1.63
2019-03-16T14:15:24.054Z,1.53
2019-03-16T14:17:52.647Z,1.37
2019-03-16T14:20:21.585Z,1.50
2019-03-16T14:22:50.064Z,1.87
2019-03-16T14:25:18.488Z,2.10
2019-03-16T14:27:46.925Z,13.47
2019-03-16T14:30:34.721Z,9.70
2019-03-16T14:32:47.661Z,8.50
2019-03-16T14:35:16.169Z,4.83
2019-03-16T14:37:44.597Z,6.57
2019-03-16T14:40:16.500Z,3.10
2019-03-16T14:42:45.322Z,3.47
2019-03-16T14:45:15.472Z,5.17
2019-03-16T14:47:43.902Z,6.30
2019-03-16T14:50:26.769Z,3.93
2019-03-16T14:52:55.224Z,7.60
2019-03-16T14:55:23.646Z,4.53
2019-03-16T14:57:52.094Z,4.63
2019-03-16T15:00:20.519Z,5.93
2019-03-16T15:02:48.945Z,6.07
2019-03-16T15:05:17.379Z,6.00
2019-03-16T15:07:49.179Z,4.50
2019-03-16T15:10:17.449Z,4.67
2019-03-16T15:12:46.084Z,6.70
2019-03-16T15:15:16.923Z,6.03
2019-03-16T15:17:45.373Z,6.63
2019-03-16T15:20:14.081Z,14.60
2019-03-16T15:22:44.101Z,5.53
2019-03-16T15:25:13.597Z,8.70
2019-03-16T15:27:42.307Z,7.17
2019-03-16T15:30:15.874Z,13.23
2019-03-16T15:32:44.406Z,10.80
2019-03-16T15:35:12.916Z,11.37
2019-03-16T15:37:41.347Z,12.00
2019-03-16T15:40:12.106Z,10.50
2019-03-16T15:42:40.534Z,10.20
2019-03-16T15:45:17.766Z,11.50
2019-03-16T15:47:46.217Z,13.57
2019-03-16T15:50:14.682Z,20.17
2019-03-16T15:52:43.103Z,19.10
2019-03-16T15:55:12.169Z,12.30
2019-03-16T15:57:42.491Z,11.33
2019-03-16T16:00:18.212Z,9.10
2019-03-16T16:02:47.186Z,11.83
2019-03-16T16:05:15.614Z,14.63
2019-03-16T16:07:44.038Z,14.20
2019-03-16T16:10:15.103Z,14.60
2019-03-16T16:12:43.562Z,13.80
2019-03-16T16:15:12.764Z,14.67
2019-03-16T16:17:41.199Z,14.87
2019-03-16T16:20:12.019Z,17.80
2019-03-16T16:22:40.501Z,24.77
2019-03-16T16:25:11.478Z,23.93
2019-03-16T16:27:39.916Z,16.43
2019-03-16T16:30:17.404Z,21.87
2019-03-16T16:32:46.104Z,13.80
2019-03-16T16:35:15.755Z,28.57
2019-03-16T16:38:03.513Z,17.40
2019-03-16T16:40:32.135Z,20.77
2019-03-16T16:43:00.605Z,25.03
2019-03-16T16:45:29.035Z,23.53
2019-03-16T16:47:57.491Z,16.03
2019-03-16T16:50:26.727Z,25.17
2019-03-16T16:52:55.163Z,20.13
2019-03-16T16:55:23.594Z,22.77
2019-03-16T16:57:52.014Z,27.77
2019-03-16T17:00:22.679Z,20.50
2019-03-16T17:03:44.385Z,25.95
2019-03-16T17:06:12.835Z,17.47
2019-03-16T17:08:41.269Z,26.43
2019-03-16T17:11:09.713Z,20.97
2019-03-16T17:13:38.149Z,20.70
2019-03-16T17:16:07.840Z,11.10
2019-03-16T17:18:36.402Z,14.83
2019-03-16T17:21:04.998Z,23.00
2019-03-16T17:23:33.429Z,19.53
2019-03-16T17:26:01.940Z,20.33
2019-03-16T17:28:30.385Z,15.90
2019-03-16T17:31:00.556Z,25.07
2019-03-16T17:33:29.058Z,12.23
2019-03-16T17:35:57.504Z,11.00
2019-03-16T17:38:25.935Z,22.83
2019-03-16T17:40:54.375Z,18.13
2019-03-16T17:43:22.821Z,16.50
2019-03-16T17:45:51.264Z,10.67
2019-03-16T17:48:19.798Z,21.67
2019-03-16T17:50:49.073Z,16.73
2019-03-16T17:53:18.063Z,7.50
2019-03-16T17:55:47.061Z,15.03
2019-03-16T17:58:16.359Z,12.10
2019-03-16T18:00:46.610Z,16.90
2019-03-16T18:03:15.037Z,16.00
2019-03-16T18:05:43.671Z,13.63
2019-03-16T18:08:12.127Z,14.80
2019-03-16T18:10:40.554Z,12.13
2019-03-16T18:13:11.118Z,11.23
2019-03-16T18:15:39.169Z,14.90
2019-03-16T18:18:07.608Z,13.27
2019-03-16T18:20:38.596Z,11.60
2019-03-16T18:23:07.194Z,11.97
2019-03-16T18:25:37.755Z,11.83
2019-03-16T18:28:05.778Z,13.20
2019-03-16T18:30:34.227Z,19.40
2019-03-16T18:33:02.660Z,13.30
2019-03-16T18:35:31.245Z,11.90
2019-03-16T18:38:02.764Z,17.57
2019-03-16T18:40:31.202Z,11.63
2019-03-16T18:42:59.632Z,15.97
2019-03-16T18:45:32.798Z,12.07
2019-03-16T18:48:01.360Z,7.73
2019-03-16T18:50:29.802Z,9.53
2019-03-16T18:52:58.250Z,11.00
2019-03-16T18:55:26.673Z,12.10
2019-03-16T18:57:55.113Z,11.13
2019-03-16T19:00:23.538Z,11.50
2019-03-16T19:02:51.989Z,16.07
2019-03-16T19:05:20.419Z,10.50
2019-03-16T19:07:48.897Z,5.97
2019-03-16T19:10:17.909Z,13.43
2019-03-16T19:12:46.416Z,9.37
2019-03-16T19:15:18.670Z,13.37
2019-03-16T19:17:58.132Z,8.73
2019-03-16T19:20:19.550Z,15.67
2019-03-16T19:22:49.187Z,12.37
2019-03-16T19:25:22.481Z,10.90
2019-03-16T19:27:51.013Z,13.43
2019-03-16T19:30:22.678Z,9.17
2019-03-16T19:32:51.141Z,9.40
2019-03-16T19:35:19.723Z,6.70
2019-03-16T19:37:48.142Z,13.47
2019-03-16T19:40:19.681Z,5.57
2019-03-16T19:42:48.164Z,8.67
2019-03-16T19:45:16.629Z,13.23
2019-03-16T19:47:45.235Z,7.50
2019-03-16T19:50:14.958Z,8.90
2019-03-16T19:52:43.523Z,7.93
2019-03-16T19:55:13.206Z,6.40
2019-03-16T19:57:41.651Z,7.87
2019-03-16T20:00:16.050Z,6.63
2019-03-16T20:02:49.984Z,2.97
2019-03-16T20:05:15.278Z,12.13
2019-03-16T20:07:43.708Z,5.47
2019-03-16T20:10:15.415Z,11.20
2019-03-16T20:12:43.837Z,5.43
2019-03-16T20:15:13.928Z,8.00
2019-03-16T20:17:42.349Z,11.37
2019-03-16T20:20:15.701Z,10.33
2019-03-16T20:22:44.131Z,12.60
2019-03-16T20:25:13.460Z,9.53
2019-03-16T20:27:41.878Z,7.23
2019-03-16T20:30:14.545Z,9.73
2019-03-16T20:32:48.210Z,11.83
2019-03-16T20:35:13.957Z,13.20
2019-03-16T20:37:42.546Z,16.67
2019-03-16T20:40:13.520Z,8.80
2019-03-16T20:42:41.973Z,14.13
2019-03-16T20:45:12.166Z,5.33
2019-03-16T20:47:40.861Z,14.90
2019-03-16T20:50:17.953Z,6.23
2019-03-16T20:52:46.362Z,4.30
2019-03-16T20:55:15.240Z,8.70
2019-03-16T20:57:43.787Z,11.00
2019-03-16T21:00:17.689Z,9.87
2019-03-16T21:02:46.199Z,8.90
2019-03-16T21:05:14.895Z,20.60
2019-03-16T21:07:43.311Z,7.40
2019-03-16T21:10:13.569Z,7.90
2019-03-16T21:12:42.027Z,6.47
2019-03-16T21:15:14.067Z,9.73
2019-03-16T21:17:42.861Z,12.10
2019-03-16T21:20:16.409Z,8.07
2019-03-16T21:22:44.921Z,11.33
2019-03-16T21:25:14.713Z,11.57
2019-03-16T21:27:43.170Z,9.93
2019-03-16T21:30:19.506Z,16.00
2019-03-16T21:32:47.966Z,11.33
2019-03-16T21:35:16.469Z,19.80
2019-03-16T21:37:44.900Z,11.90
2019-03-16T21:40:14.777Z,6.50
2019-03-16T21:42:43.224Z,11.50
2019-03-16T21:45:13.052Z,13.23
2019-03-16T21:47:41.527Z,4.30
2019-03-16T21:50:12.001Z,8.83
2019-03-16T21:52:40.451Z,11.90
2019-03-16T21:55:10.621Z,12.00
2019-03-16T21:57:39.135Z,8.30
2019-03-16T22:00:15.701Z,15.97
2019-03-16T22:02:44.130Z,13.47
2019-03-16T22:05:12.724Z,9.97
2019-03-16T22:07:41.443Z,13.43
2019-03-16T22:10:11.906Z,14.07
2019-03-16T22:12:40.465Z,13.33
2019-03-16T22:15:11.449Z,17.50
2019-03-16T22:17:40.122Z,6.53
2019-03-16T22:20:11.842Z,7.53
2019-03-16T22:22:40.376Z,18.00
2019-03-16T22:25:10.575Z,10.60
2019-03-16T22:27:40.475Z,13.47
2019-03-16T22:30:11.818Z,9.80
2019-03-16T22:32:43.120Z,11.90
2019-03-16T22:35:11.752Z,11.00
2019-03-16T22:37:40.193Z,11.00
2019-03-16T22:40:15.250Z,5.40
2019-03-16T22:42:43.833Z,8.33
2019-03-16T22:45:14.451Z,12.50
2019-03-16T22:47:42.869Z,9.80
2019-03-16T22:50:13.545Z,14.40
2019-03-16T22:52:43.398Z,8.50
2019-03-16T22:55:15.670Z,7.83
2019-03-16T22:57:45.144Z,7.53
2019-03-16T23:00:20.085Z,11.57
2019-03-16T23:02:48.515Z,9.20
2019-03-16T23:05:17.176Z,9.67
2019-03-16T23:07:45.605Z,9.47
2019-03-16T23:10:14.217Z,9.93
2019-03-16T23:12:42.669Z,6.10
2019-03-16T23:15:11.854Z,5.67
2019-03-16T23:17:43.864Z,10.00
2019-03-16T23:20:12.945Z,7.07
2019-03-16T23:22:41.379Z,6.60
2019-03-16T23:25:10.807Z,3.40
2019-03-16T23:27:39.229Z,2.83
2019-03-16T23:30:09.421Z,6.70
2019-03-16T23:32:38.117Z,8.37
2019-03-16T23:35:08.414Z,6.00
2019-03-16T23:37:36.840Z,7.97
2019-03-16T23:40:07.921Z,11.87
2019-03-16T23:42:36.365Z,9.43
2019-03-16T23:45:07.401Z,10.97
2019-03-16T23:47:37.364Z,9.20
2019-03-16T23:50:08.585Z,5.53
2019-03-16T23:52:37.314Z,9.90
2019-03-16T23:55:09.841Z,5.40
2019-03-16T23:57:38.534Z,7.80
